createdAt,value
2022-11-02T00:01:19.683Z,1.13
2022-11-02T00:03:47.938Z,1.15
2022-11-02T00:06:15.768Z,1.00
2022-11-02T00:08:43.611Z,1.17
2022-11-02T00:11:12.905Z,1.00
2022-11-02T00:13:40.688Z,1.40
2022-11-02T00:16:11.327Z,1.20
2022-11-02T00:18:39.669Z,1.10
2022-11-02T00:21:07.593Z,1.08
2022-11-02T00:23:35.727Z,1.10
2022-11-02T00:26:04.101Z,1.45
2022-11-02T00:28:33.360Z,1.50
2022-11-02T00:31:01.172Z,1.67
2022-11-02T00:33:28.946Z,1.35
2022-11-02T00:35:57.099Z,1.38
2022-11-02T00:38:25.128Z,1.35
2022-11-02T00:40:52.854Z,1.20
2022-11-02T00:43:20.662Z,1.10
2022-11-02T00:45:49.842Z,1.08
2022-11-02T00:48:17.687Z,1.23
2022-11-02T00:50:45.462Z,1.20
2022-11-02T00:53:14.147Z,1.35
2022-11-02T00:55:51.320Z,1.50
2022-11-02T00:58:19.243Z,1.08
2022-11-02T01:00:47.311Z,1.15
2022-11-02T01:03:16.691Z,1.27
2022-11-02T01:05:44.578Z,1.05
2022-11-02T01:08:12.732Z,1.10
2022-11-02T01:10:44.082Z,1.23
2022-11-02T01:13:15.273Z,1.40
2022-11-02T01:15:43.394Z,1.17
2022-11-02T01:18:11.240Z,1.20
2022-11-02T01:20:40.422Z,1.30
2022-11-02T01:23:08.398Z,1.17
2022-11-02T01:25:36.400Z,1.08
2022-11-02T01:28:05.063Z,1.08
2022-11-02T01:30:33.814Z,1.23
2022-11-02T01:33:01.758Z,1.40
2022-11-02T01:35:29.547Z,0.90
2022-11-02T01:37:58.717Z,1.23
2022-11-02T01:40:26.687Z,1.10
2022-11-02T01:42:54.608Z,1.00
2022-11-02T01:45:22.395Z,1.00
2022-11-02T01:47:50.262Z,1.15
2022-11-02T01:50:21.883Z,1.15
2022-11-02T01:52:51.681Z,1.27
2022-11-02T01:55:23.849Z,1.40
2022-11-02T01:57:57.457Z,1.13
2022-11-02T02:00:25.551Z,1.05
2022-11-02T02:02:57.799Z,1.40
2022-11-02T02:05:26.667Z,1.10
2022-11-02T02:07:56.596Z,1.40
2022-11-02T02:10:26.011Z,1.30
2022-11-02T02:12:53.979Z,1.33
2022-11-02T02:15:25.448Z,1.35
2022-11-02T02:17:59.721Z,1.17
2022-11-02T02:20:47.548Z,1.17
2022-11-02T02:23:34.256Z,1.20
2022-11-02T02:26:46.227Z,1.10
2022-11-02T02:29:22.025Z,1.15
2022-11-02T02:31:59.018Z,1.33
2022-11-02T02:34:35.529Z,1.25
2022-11-02T02:37:10.644Z,1.25
2022-11-02T02:39:44.281Z,1.38
2022-11-02T02:42:21.009Z,1.20
2022-11-02T02:44:55.380Z,1.00
2022-11-02T02:47:28.899Z,1.10
2022-11-02T02:50:06.834Z,1.13
2022-11-02T02:52:37.450Z,1.08
2022-11-02T02:55:08.414Z,1.58
2022-11-02T02:57:38.093Z,1.30
2022-11-02T03:00:14.752Z,1.65
2022-11-02T03:03:00.802Z,1.25
2022-11-02T03:05:32.470Z,1.40
2022-11-02T03:08:06.825Z,1.20
2022-11-02T03:10:43.281Z,1.13
2022-11-02T03:13:23.211Z,1.10
2022-11-02T03:15:59.727Z,1.45
2022-11-02T03:18:37.267Z,1.02
2022-11-02T03:21:13.396Z,1.30
2022-11-02T03:23:49.028Z,1.02
2022-11-02T03:26:24.358Z,1.02
2022-11-02T03:29:02.202Z,1.48
2022-11-02T03:31:37.383Z,1.15
2022-11-02T03:34:15.522Z,1.15
2022-11-02T03:36:49.465Z,1.27
2022-11-02T03:39:21.613Z,1.20
2022-11-02T03:41:51.973Z,1.00
2022-11-02T03:44:24.644Z,1.27
2022-11-02T03:47:00.751Z,1.30
2022-11-02T03:49:36.375Z,1.10
2022-11-02T03:52:09.807Z,1.20
2022-11-02T03:54:45.852Z,1.05
2022-11-02T03:57:22.480Z,1.25
2022-11-02T03:59:51.239Z,1.40
2022-11-02T04:02:21.079Z,1.10
2022-11-02T04:04:51.281Z,1.50
2022-11-02T04:07:25.732Z,1.15
2022-11-02T04:09:53.801Z,1.25
2022-11-02T04:12:39.568Z,0.93
2022-11-02T04:15:09.902Z,1.05
2022-11-02T04:17:57.344Z,1.10
2022-11-02T04:20:26.073Z,1.27
2022-11-02T04:23:12.746Z,1.10
2022-11-02T04:25:43.765Z,1.10
2022-11-02T04:28:14.224Z,0.88
2022-11-02T04:30:58.839Z,1.13
2022-11-02T04:33:33.477Z,1.05
2022-11-02T04:36:08.422Z,1.20
2022-11-02T04:38:42.241Z,1.40
2022-11-02T04:41:42.794Z,1.20
2022-11-02T04:44:29.254Z,1.05
2022-11-02T04:47:13.928Z,1.27
2022-11-02T04:49:43.523Z,1.67
2022-11-02T04:52:16.170Z,1.38
2022-11-02T04:54:49.547Z,1.30
2022-11-02T04:57:18.760Z,1.40
2022-11-02T04:59:46.759Z,1.23
2022-11-02T05:02:14.998Z,1.30
2022-11-02T05:04:45.781Z,1.10
2022-11-02T05:07:15.160Z,1.30
2022-11-02T05:09:43.314Z,1.17
2022-11-02T05:12:13.769Z,1.17
2022-11-02T05:14:41.733Z,1.20
2022-11-02T05:17:09.544Z,1.15
2022-11-02T05:19:38.820Z,1.20
2022-11-02T05:22:08.242Z,1.50
2022-11-02T05:24:36.247Z,1.10
2022-11-02T05:27:05.959Z,1.23
2022-11-02T05:29:36.922Z,1.55
2022-11-02T05:32:05.390Z,1.45
2022-11-02T05:34:34.001Z,1.45
2022-11-02T05:37:01.907Z,1.05
2022-11-02T05:39:31.382Z,1.40
2022-11-02T05:41:59.626Z,1.25
2022-11-02T05:44:27.467Z,1.30
2022-11-02T05:46:55.379Z,1.15
2022-11-02T05:49:23.172Z,1.02
2022-11-02T05:51:51.002Z,1.30
2022-11-02T05:54:18.826Z,1.75
2022-11-02T05:56:48.189Z,1.40
2022-11-02T05:59:16.090Z,1.25
2022-11-02T06:01:44.203Z,1.20
2022-11-02T06:04:12.105Z,1.45
2022-11-02T06:06:40.041Z,1.20
2022-11-02T06:09:07.921Z,1.20
2022-11-02T06:11:36.032Z,1.00
2022-11-02T06:14:05.443Z,1.05
2022-11-02T06:16:33.371Z,1.60
2022-11-02T06:19:01.434Z,1.25
2022-11-02T06:21:31.057Z,1.10
2022-11-02T06:23:59.718Z,0.93
2022-11-02T06:26:27.658Z,1.40
2022-11-02T06:28:55.590Z,1.23
2022-11-02T06:31:25.949Z,1.17
2022-11-02T06:33:53.848Z,1.40
2022-11-02T06:36:21.730Z,1.00
2022-11-02T06:38:49.638Z,1.13
2022-11-02T06:41:18.138Z,1.23
2022-11-02T06:43:46.094Z,1.13
2022-11-02T06:46:13.986Z,1.48
2022-11-02T06:48:43.471Z,1.27
2022-11-02T06:51:11.505Z,1.25
2022-11-02T06:53:39.433Z,1.35
2022-11-02T06:56:08.129Z,1.40
2022-11-02T06:58:35.940Z,1.20
2022-11-02T07:01:53.237Z,1.30
2022-11-02T08:29:36.854Z,1.10
2022-11-02T08:32:04.845Z,1.27
2022-11-02T08:34:32.617Z,1.30
2022-11-02T08:37:00.511Z,1.70
2022-11-02T08:39:28.832Z,1.10
2022-11-02T08:41:56.760Z,1.30
2022-11-02T08:44:24.639Z,1.92
2022-11-02T08:49:26.596Z,1.23
2022-11-02T08:51:54.413Z,1.20
2022-11-02T08:54:22.402Z,1.58
2022-11-02T08:56:50.167Z,1.10
2022-11-02T08:59:18.047Z,1.30
2022-11-02T09:01:45.927Z,1.30
2022-11-02T09:04:15.281Z,1.40
2022-11-02T09:06:43.084Z,1.00
2022-11-02T09:09:11.210Z,1.55
2022-11-02T09:11:39.372Z,1.20
2022-11-02T09:14:07.854Z,1.25
2022-11-02T09:16:41.046Z,1.20
2022-11-02T09:19:09.545Z,1.25
2022-11-02T09:21:38.847Z,1.13
2022-11-02T09:24:07.349Z,1.27
2022-11-02T09:26:35.114Z,1.27
2022-11-02T09:29:03.151Z,1.30
2022-11-02T09:31:31.341Z,1.15
2022-11-02T09:33:59.191Z,1.30
2022-11-02T09:36:27.051Z,1.30
2022-11-02T09:38:56.279Z,1.38
2022-11-02T09:41:32.047Z,1.42
2022-11-02T09:44:07.818Z,1.30
2022-11-02T09:46:40.671Z,1.23
2022-11-02T09:49:15.961Z,1.40
2022-11-02T09:51:47.570Z,1.20
2022-11-02T09:54:20.469Z,1.40
2022-11-02T09:56:50.455Z,1.25
2022-11-02T09:59:21.100Z,1.20
2022-11-02T10:01:56.852Z,1.02
2022-11-02T10:04:54.570Z,1.20
2022-11-02T10:07:34.005Z,1.00
2022-11-02T10:10:10.064Z,1.10
2022-11-02T10:12:47.095Z,1.30
2022-11-02T10:15:19.692Z,1.30
2022-11-02T10:17:53.655Z,1.63
2022-11-02T10:20:27.076Z,1.50
2022-11-02T10:22:59.452Z,1.20
2022-11-02T10:25:28.690Z,1.48
2022-11-02T10:28:04.640Z,0.95
2022-11-02T10:30:33.404Z,1.25
2022-11-02T10:33:01.272Z,1.25
2022-11-02T10:35:51.320Z,1.38
2022-11-02T10:38:39.356Z,1.20
2022-11-02T10:41:21.995Z,1.35
2022-11-02T10:44:04.373Z,1.30
2022-11-02T10:46:46.468Z,1.20
2022-11-02T10:49:27.148Z,1.08
2022-11-02T10:51:55.220Z,1.60
2022-11-02T10:54:29.326Z,1.17
2022-11-02T10:57:12.827Z,1.17
2022-11-02T10:59:40.870Z,1.20
2022-11-02T11:02:13.445Z,1.30
2022-11-02T11:07:16.108Z,1.20
2022-11-02T11:09:49.700Z,0.90
2022-11-02T11:12:22.431Z,1.10
2022-11-02T11:20:36.351Z,1.40
2022-11-02T11:23:19.293Z,1.20
2022-11-02T11:25:58.944Z,1.02
2022-11-02T11:28:31.284Z,1.20
2022-11-02T11:31:11.475Z,1.42
2022-11-02T11:33:49.445Z,1.25
2022-11-02T11:39:02.054Z,1.17
2022-11-02T11:41:30.562Z,1.30
2022-11-02T11:44:01.256Z,1.05
2022-11-02T11:46:41.154Z,1.10
2022-11-02T11:49:31.033Z,1.10
2022-11-02T11:52:05.325Z,1.10
2022-11-02T11:54:33.943Z,1.23
2022-11-02T11:57:23.607Z,1.00
2022-11-02T11:59:55.290Z,1.25
2022-11-02T12:02:25.549Z,1.10
2022-11-02T12:05:00.213Z,1.08
2022-11-02T12:08:05.505Z,0.85
2022-11-02T12:10:48.710Z,0.85
2022-11-02T12:13:28.133Z,1.10
2022-11-02T12:16:14.009Z,1.10
2022-11-02T12:19:04.631Z,1.40
2022-11-02T12:21:59.253Z,1.20
2022-11-02T12:24:44.863Z,1.33
2022-11-02T12:27:26.467Z,1.20
2022-11-02T12:30:04.313Z,1.10
2022-11-02T12:32:49.987Z,1.13
2022-11-02T12:35:49.684Z,0.98
2022-11-02T12:38:45.752Z,1.33
2022-11-02T12:41:15.608Z,0.93
2022-11-02T12:43:45.597Z,1.10
2022-11-02T12:46:38.000Z,1.20
2022-11-02T12:49:26.352Z,1.30
2022-11-02T12:52:01.386Z,1.58
2022-11-02T12:54:41.528Z,1.63
2022-11-02T12:57:14.156Z,1.13
2022-11-02T12:59:45.038Z,0.85
2022-11-02T13:02:17.335Z,1.25
2022-11-02T13:04:53.232Z,1.10
2022-11-02T13:07:28.846Z,1.15
2022-11-02T13:10:04.131Z,1.35
2022-11-02T13:12:35.129Z,1.23
2022-11-02T13:15:07.926Z,1.10
2022-11-02T13:17:41.932Z,1.13
2022-11-02T13:20:17.838Z,1.25
2022-11-02T13:22:51.210Z,1.15
2022-11-02T13:25:23.276Z,1.20
2022-11-02T13:27:55.339Z,1.20
2022-11-02T13:30:23.199Z,1.00
2022-11-02T13:32:55.662Z,1.08
2022-11-02T13:35:33.194Z,1.10
2022-11-02T13:38:07.388Z,1.10
2022-11-02T13:40:40.639Z,1.10
2022-11-02T13:43:28.750Z,1.50
2022-11-02T13:46:14.434Z,1.05
2022-11-02T13:49:06.157Z,1.48
2022-11-02T13:51:40.050Z,1.20
2022-11-02T13:54:16.246Z,1.38
2022-11-02T13:56:45.138Z,1.30
2022-11-02T13:59:22.654Z,1.10
2022-11-02T14:01:53.844Z,1.17
2022-11-02T14:04:22.589Z,1.42
2022-11-02T14:06:56.450Z,1.35
2022-11-02T14:09:29.396Z,1.83
2022-11-02T14:12:29.596Z,1.05
2022-11-02T14:15:44.937Z,1.15
2022-11-02T14:18:15.040Z,1.33
2022-11-02T14:20:44.508Z,0.95
2022-11-02T14:23:41.671Z,1.50
2022-11-02T14:26:32.448Z,1.00
2022-11-02T14:29:00.905Z,1.17
2022-11-02T14:31:46.348Z,1.02
2022-11-02T14:34:40.360Z,1.17
2022-11-02T14:37:26.233Z,1.00
2022-11-02T14:40:04.478Z,1.13
2022-11-02T14:42:43.625Z,1.08
2022-11-02T14:45:40.021Z,0.90
2022-11-02T14:48:14.291Z,1.00
2022-11-02T14:50:42.163Z,1.25
2022-11-02T14:53:23.145Z,1.17
2022-11-02T14:55:56.630Z,1.00
2022-11-02T14:58:28.150Z,1.17
2022-11-02T15:00:59.538Z,1.00
2022-11-02T15:03:35.757Z,1.38
2022-11-02T15:06:06.966Z,1.30
2022-11-02T15:08:36.861Z,1.20
2022-11-02T15:11:42.128Z,1.20
2022-11-02T15:14:43.379Z,1.10
2022-11-02T15:17:44.516Z,1.35
2022-11-02T15:20:28.351Z,1.10
2022-11-02T15:22:59.548Z,1.60
2022-11-02T15:25:31.240Z,1.25
2022-11-02T15:28:06.778Z,1.23
2022-11-02T15:30:43.359Z,1.45
2022-11-02T15:33:21.236Z,1.75
2022-11-02T15:35:54.602Z,1.90
2022-11-02T15:38:33.777Z,1.60
2022-11-02T15:41:14.387Z,1.60
2022-11-02T15:46:39.985Z,1.90
2022-11-02T15:49:21.909Z,1.63
2022-11-02T15:51:59.851Z,1.30
2022-11-02T15:54:54.497Z,1.33
2022-11-02T15:57:35.269Z,1.40
2022-11-02T16:00:16.922Z,1.58
2022-11-02T16:02:50.119Z,1.42
2022-11-02T16:05:21.284Z,1.48
2022-11-02T16:10:40.499Z,2.10
2022-11-02T16:13:17.730Z,1.98
2022-11-02T16:15:49.651Z,2.10
2022-11-02T16:18:29.000Z,1.97
2022-11-02T16:21:00.652Z,1.92
2022-11-02T16:23:32.613Z,1.83
2022-11-02T16:26:02.404Z,1.67
2022-11-02T16:28:31.988Z,1.88
2022-11-02T16:31:15.708Z,1.70
2022-11-02T16:33:48.462Z,1.83
2022-11-02T16:36:18.611Z,1.60
2022-11-02T16:38:55.792Z,1.70
2022-11-02T16:41:26.737Z,1.67
2022-11-02T16:43:55.553Z,1.73
2022-11-02T16:46:30.924Z,1.50
2022-11-02T16:49:08.036Z,1.67
2022-11-02T16:51:35.944Z,1.30
2022-11-02T16:54:31.376Z,1.30
2022-11-02T16:57:08.626Z,1.25
2022-11-02T16:59:46.770Z,2.00
2022-11-02T17:02:16.031Z,1.52
2022-11-02T17:04:46.568Z,1.42
2022-11-02T17:07:21.420Z,1.17
2022-11-02T17:09:55.750Z,1.23
2022-11-02T17:12:30.476Z,1.83
2022-11-02T17:14:59.796Z,1.17
2022-11-02T17:17:40.103Z,1.33
2022-11-02T17:20:18.072Z,1.40
2022-11-02T17:22:52.534Z,1.45
2022-11-02T17:25:24.669Z,1.27
2022-11-02T17:27:53.719Z,1.27
2022-11-02T17:30:47.324Z,1.40
2022-11-02T17:33:25.465Z,1.13
2022-11-02T17:35:55.390Z,1.05
2022-11-02T17:38:26.843Z,1.30
2022-11-02T17:40:56.644Z,1.20
2022-11-02T17:43:23.933Z,1.40
2022-11-02T17:45:56.300Z,1.38
2022-11-02T17:48:25.362Z,1.23
2022-11-02T17:50:54.567Z,1.30
2022-11-02T17:53:23.737Z,1.42
2022-11-02T17:55:51.884Z,1.35
2022-11-02T17:58:21.116Z,1.40
2022-11-02T18:00:48.927Z,1.40
2022-11-02T18:03:21.668Z,1.50
2022-11-02T18:05:54.543Z,1.70
2022-11-02T18:08:25.197Z,1.75
2022-11-02T18:10:53.753Z,1.30
2022-11-02T18:13:25.153Z,1.40
2022-11-02T18:15:53.146Z,1.30
2022-11-02T18:18:20.876Z,1.40
2022-11-02T18:20:50.098Z,1.70
2022-11-02T18:23:19.811Z,1.33
2022-11-02T18:25:47.839Z,1.25
2022-11-02T18:28:15.742Z,1.30
2022-11-02T18:30:45.081Z,1.48
2022-11-02T18:33:14.021Z,1.15
2022-11-02T18:35:43.278Z,1.55
2022-11-02T18:38:11.684Z,1.50
2022-11-02T18:40:39.723Z,1.52
2022-11-02T18:43:07.959Z,1.20
2022-11-02T18:45:36.147Z,1.67
2022-11-02T18:48:05.656Z,1.38
2022-11-02T18:50:33.864Z,2.15
2022-11-02T18:53:01.615Z,1.45
2022-11-02T18:55:29.433Z,1.30
2022-11-02T18:57:57.200Z,1.50
2022-11-02T19:00:25.044Z,1.50
2022-11-02T19:02:52.896Z,1.50
2022-11-02T19:05:39.469Z,1.40
2022-11-02T19:08:24.688Z,1.65
2022-11-02T19:10:52.545Z,1.40
2022-11-02T19:13:20.332Z,1.30
2022-11-02T19:15:48.199Z,1.15
2022-11-02T19:18:16.032Z,1.17
2022-11-02T19:20:45.200Z,1.60
2022-11-02T19:23:13.044Z,1.20
2022-11-02T19:25:40.990Z,1.60
2022-11-02T19:28:09.028Z,1.73
2022-11-02T19:30:38.716Z,1.33
2022-11-02T19:33:06.861Z,1.40
2022-11-02T19:35:35.676Z,1.50
2022-11-02T19:38:04.809Z,1.23
2022-11-02T19:40:33.822Z,1.45
2022-11-02T19:43:01.653Z,1.40
2022-11-02T19:45:29.552Z,1.60
2022-11-02T19:47:57.430Z,1.70
2022-11-02T19:50:25.271Z,1.60
2022-11-02T19:52:53.120Z,1.60
2022-11-02T19:55:25.130Z,1.58
2022-11-02T19:57:52.981Z,1.50
2022-11-02T20:00:20.851Z,1.70
2022-11-02T20:02:50.634Z,1.88
2022-11-02T20:05:18.491Z,1.50
2022-11-02T20:07:46.300Z,1.60
2022-11-02T20:10:14.628Z,1.65
2022-11-02T20:12:43.808Z,1.60
2022-11-02T20:15:12.171Z,1.92
2022-11-02T20:17:58.436Z,1.50
2022-11-02T20:20:28.738Z,1.58
2022-11-02T20:22:56.716Z,1.75
2022-11-02T20:25:25.669Z,2.20
2022-11-02T20:27:57.585Z,1.58
2022-11-02T20:30:25.571Z,2.08
2022-11-02T20:32:53.381Z,2.00
2022-11-02T20:35:25.485Z,1.75
2022-11-02T20:37:54.847Z,1.80
2022-11-02T20:40:23.781Z,1.70
2022-11-02T20:42:51.816Z,2.00
2022-11-02T20:45:23.446Z,2.35
2022-11-02T20:47:52.022Z,1.77
2022-11-02T20:50:24.754Z,1.92
2022-11-02T20:52:55.348Z,1.83
2022-11-02T20:55:23.295Z,1.90
2022-11-02T20:57:51.245Z,2.20
2022-11-02T21:00:21.159Z,2.10
2022-11-02T21:02:49.492Z,2.30
2022-11-02T21:05:17.364Z,2.00
2022-11-02T21:07:45.300Z,2.40
2022-11-02T21:10:13.151Z,1.88
2022-11-02T21:12:58.704Z,2.28
2022-11-02T21:15:27.936Z,2.55
2022-11-02T21:17:56.124Z,2.35
2022-11-02T21:20:39.442Z,2.30
2022-11-02T21:23:08.085Z,2.17
2022-11-02T21:25:36.364Z,1.88
2022-11-02T21:28:04.639Z,1.92
2022-11-02T21:30:34.135Z,2.22
2022-11-02T21:33:02.171Z,2.13
2022-11-02T21:35:30.023Z,1.90
2022-11-02T21:38:01.288Z,2.58
2022-11-02T21:40:31.934Z,2.55
2022-11-02T21:43:01.746Z,2.30
2022-11-02T21:45:33.528Z,2.47
2022-11-02T21:48:06.111Z,2.08
2022-11-02T21:50:33.934Z,2.53
2022-11-02T21:53:01.737Z,2.33
2022-11-02T21:55:29.872Z,2.38
2022-11-02T21:57:57.741Z,2.33
2022-11-02T22:00:46.095Z,2.50
2022-11-02T22:03:14.457Z,2.33
2022-11-02T22:05:59.583Z,2.13
2022-11-02T22:08:39.663Z,2.55
2022-11-02T22:11:12.183Z,1.90
2022-11-02T22:13:41.870Z,2.35
2022-11-02T22:16:11.726Z,1.90
2022-11-02T22:18:42.141Z,2.50
2022-11-02T22:21:10.454Z,2.35
2022-11-02T22:23:38.516Z,2.10
2022-11-02T22:26:08.521Z,2.17
2022-11-02T22:28:39.115Z,2.17
2022-11-02T22:31:08.476Z,2.10
2022-11-02T22:33:37.180Z,2.17
2022-11-02T22:36:08.614Z,2.30
2022-11-02T22:38:48.237Z,2.17
2022-11-02T22:41:16.858Z,2.08
2022-11-02T22:43:44.659Z,1.85
2022-11-02T22:46:12.873Z,1.88
2022-11-02T22:48:40.749Z,2.00
2022-11-02T22:51:10.617Z,1.80
2022-11-02T22:53:38.874Z,2.10
2022-11-02T22:56:09.163Z,2.10
2022-11-02T22:58:38.151Z,2.05
2022-11-02T23:01:06.980Z,1.85
2022-11-02T23:03:36.214Z,1.92
2022-11-02T23:06:06.437Z,1.70
2022-11-02T23:08:37.669Z,1.50
2022-11-02T23:11:22.472Z,1.48
2022-11-02T23:13:53.013Z,1.70
2022-11-02T23:16:22.500Z,1.63
2022-11-02T23:19:09.326Z,1.98
2022-11-02T23:21:37.483Z,1.70
2022-11-02T23:24:25.383Z,1.88
2022-11-02T23:26:53.300Z,1.80
2022-11-02T23:29:38.332Z,2.13
2022-11-02T23:32:23.967Z,1.83
2022-11-02T23:35:09.409Z,2.33
2022-11-02T23:37:38.432Z,1.65
2022-11-02T23:40:09.272Z,1.80
2022-11-02T23:42:37.376Z,1.77
2022-11-02T23:45:05.662Z,1.90
2022-11-02T23:47:51.514Z,1.73
2022-11-02T23:50:34.974Z,1.30
2022-11-02T23:53:20.992Z,1.50
2022-11-02T23:56:08.759Z,2.08
2022-11-02T23:58:36.840Z,1.80
